Time;durP1;ratioP1;P1;durP2;ratioP2;P2;SDS_P1;SDS_P2;PMS_P1;PMS_P2;Temp;Humidity;BMP_temperature;BMP_pressure;BME280_temperature;BME280_humidity;BME280_pressure;Samples;Min_cycle;Max_cycle;Signal;HPM_P1;HPM_P2
2023/01/12 01:38:12;;;;;;;11.02;1.63;;;;;;;;;;5013084;27;20446;-73
2023/01/12 01:40:41;;;;;;;9.30;1.35;;;;;;;;;;4904874;28;20291;-77
2023/01/12 01:43:13;;;;;;;8.32;1.73;;;;;;;;;;4865835;28;20062;-81
2023/01/12 02:01:15;;;;;;;9.52;1.85;;;;;;;;;;6287628;22;1384166;-76
2023/01/12 02:03:43;;;;;;;6.88;1.77;;;;;;;;;;6187346;22;20031;-77
2023/01/12 02:06:10;;;;;;;9.18;1.58;;;;;;;;;;6234657;22;20023;-75
2023/01/12 02:08:42;;;;;;;9.32;1.67;;;;;;;;;;6222729;22;20028;-74
2023/01/12 02:16:19;;;;;;;7.68;1.80;;;;;;;;;;6155986;22;20024;-78
2023/01/12 02:16:51;;;;;;;8.90;1.73;;;;;;;;;;6129648;23;20030;-72
2023/01/12 02:19:39;;;;;;;9.27;1.83;;;;;;;;;;6137453;23;20024;-72
2023/01/12 02:22:06;;;;;;;;;;;;;;;;;;6102207;23;20028;-73
2023/01/12 02:27:31;;;;;;;6.50;1.52;;;;;;;;;;4973449;28;21520;-76
2023/01/12 02:30:18;;;;;;;5.80;1.38;;;;;;;;;;4908062;28;20063;-73
2023/01/12 02:32:50;;;;;;;5.78;1.30;;;;;;;;;;4950534;28;20062;-73
2023/01/12 02:35:22;;;;;;;4.40;1.15;;;;;;;;;;4946695;28;20068;-75
2023/01/12 02:37:54;;;;;;;4.50;1.05;;;;;;;;;;4978341;28;20148;-77
2023/01/12 02:40:25;;;;;;;2.70;0.85;;;;;;;;;;4979517;28;20053;-74
2023/01/12 02:42:58;;;;;;;7.43;1.40;;;;;;;;;;4974876;28;20225;-79
2023/01/12 02:45:34;;;;;;;3.78;1.05;;;;;;;;;;4955601;28;20050;-78
2023/01/12 02:48:05;;;;;;;6.72;1.45;;;;;;;;;;4943378;28;20062;-75
2023/01/12 02:53:10;;;;;;;5.03;1.05;;;;;;;;;;5158344;23;20058;-82
2023/01/12 02:58:20;;;;;;;7.68;1.25;;;;;;;;;;4988353;27;20535;-76
2023/01/12 03:00:49;;;;;;;5.32;0.80;;;;;;;;;;4896476;28;20059;-78
2023/01/12 03:08:09;;;;;;;4.13;1.05;;;;;;;;;;4815765;29;20048;-77
2023/01/12 03:10:41;;;;;;;3.42;0.88;;;;;;;;;;4803926;29;20075;-79
2023/01/12 03:13:09;;;;;;;4.88;1.05;;;;;;;;;;4813927;29;20049;-78
2023/01/12 03:15:40;;;;;;;5.88;1.10;;;;;;;;;;4779039;29;20052;-78
2023/01/12 03:18:09;;;;;;;3.10;0.93;;;;;;;;;;4927692;28;20124;-82
2023/01/12 03:20:38;;;;;;;4.65;1.20;;;;;;;;;;4918681;28;20113;-77
2023/01/12 03:23:07;;;;;;;4.75;1.38;;;;;;;;;;4920234;28;20102;-79
2023/01/12 03:30:43;;;;;;;4.30;1.00;;;;;;;;;;4991078;27;20426;-77
2023/01/12 03:33:11;;;;;;;2.97;0.85;;;;;;;;;;4971595;28;20080;-79
2023/01/12 03:38:06;;;;;;;3.53;1.23;;;;;;;;;;4903224;28;20303;-76
2023/01/12 03:40:35;;;;;;;6.90;0.93;;;;;;;;;;5004033;28;20137;-75
2023/01/12 03:43:06;;;;;;;4.93;1.45;;;;;;;;;;5003419;28;20045;-77
2023/01/12 03:50:27;;;;;;;3.88;0.98;;;;;;;;;;4908192;28;20049;-77
2023/01/12 03:58:08;;;;;;;5.90;1.20;;;;;;;;;;5023788;27;20215;-77
2023/01/12 04:00:35;;;;;;;4.82;1.10;;;;;;;;;;4936055;28;20055;-79
2023/01/12 04:03:05;;;;;;;5.57;1.25;;;;;;;;;;4923648;28;20053;-73
2023/01/12 04:10:41;;;;;;;3.33;1.08;;;;;;;;;;5058093;27;20473;-77
2023/01/12 04:13:08;;;;;;;5.60;1.00;;;;;;;;;;5020702;28;20043;-75
2023/01/12 04:15:41;;;;;;;4.07;0.95;;;;;;;;;;4965465;28;20050;-76
2023/01/12 04:18:07;;;;;;;5.50;0.98;;;;;;;;;;5003059;28;20041;-75
2023/01/12 04:20:34;;;;;;;6.95;1.00;;;;;;;;;;5010414;28;20053;-76
2023/01/12 04:23:00;;;;;;;6.00;0.95;;;;;;;;;;4996039;28;20049;-76
2023/01/12 04:25:27;;;;;;;3.15;1.05;;;;;;;;;;4999233;28;20118;-74
2023/01/12 04:27:59;;;;;;;6.68;1.02;;;;;;;;;;4988780;28;20059;-80
2023/01/12 04:30:27;;;;;;;4.82;0.80;;;;;;;;;;4971816;28;20103;-78
2023/01/12 04:32:56;;;;;;;4.78;0.80;;;;;;;;;;4977974;28;20125;-74
2023/01/12 04:35:25;;;;;;;5.82;1.92;;;;;;;;;;4961361;28;20050;-73
2023/01/12 04:37:52;;;;;;;3.88;0.90;;;;;;;;;;4962460;28;20060;-71
2023/01/12 04:40:19;;;;;;;7.38;1.27;;;;;;;;;;4969012;28;20073;-73
2023/01/12 04:50:21;;;;;;;3.33;0.77;;;;;;;;;;4944423;27;20466;-79
2023/01/12 04:52:48;;;;;;;2.78;0.80;;;;;;;;;;4957068;28;20093;-73
2023/01/12 04:55:17;;;;;;;6.60;0.80;;;;;;;;;;4930104;28;20057;-71
2023/01/12 05:02:59;;;;;;;2.55;0.70;;;;;;;;;;5007047;27;20787;-74
2023/01/12 05:10:35;;;;;;;2.53;0.80;;;;;;;;;;4964633;28;20085;-74
2023/01/12 05:13:02;;;;;;;6.75;0.80;;;;;;;;;;4971249;28;20057;-76
2023/01/12 05:15:29;;;;;;;3.38;0.93;;;;;;;;;;4978789;28;20070;-79
2023/01/12 05:17:57;;;;;;;3.42;0.68;;;;;;;;;;4948580;28;20057;-75
2023/01/12 05:20:24;;;;;;;;;;;;;;;;;;4957867;28;20050;-77
2023/01/12 05:22:51;;;;;;;4.28;1.05;;;;;;;;;;4959704;28;19925;-75
2023/01/12 05:25:18;;;;;;;6.90;0.80;;;;;;;;;;4957385;28;21349;-82
2023/01/12 05:27:45;;;;;;;3.42;0.70;;;;;;;;;;4947036;28;21200;-81
2023/01/12 05:35:23;;;;;;;8.27;0.90;;;;;;;;;;5038989;27;20410;-74
2023/01/12 05:37:50;;;;;;;2.67;0.60;;;;;;;;;;4957718;28;20173;-74
2023/01/12 05:40:17;;;;;;;2.47;0.80;;;;;;;;;;4947727;28;20092;-77
2023/01/12 05:45:28;;;;;;;4.43;1.08;;;;;;;;;;4991590;28;20169;-76
2023/01/12 05:47:59;;;;;;;2.20;0.70;;;;;;;;;;4941569;28;20058;-77
2023/01/12 05:50:27;;;;;;;2.92;0.60;;;;;;;;;;4905475;28;20054;-82
2023/01/12 05:52:55;;;;;;;2.85;0.60;;;;;;;;;;4955538;28;20046;-81
2023/01/12 05:55:21;;;;;;;4.57;0.77;;;;;;;;;;4929600;28;20050;-78
2023/01/12 05:57:51;;;;;;;6.65;1.48;;;;;;;;;;4913403;28;20050;-75
2023/01/12 06:05:25;;;;;;;2.70;0.88;;;;;;;;;;4960316;27;20441;-79
2023/01/12 06:07:52;;;;;;;1.90;0.68;;;;;;;;;;4898045;28;20121;-77
2023/01/12 06:10:19;;;;;;;5.20;0.95;;;;;;;;;;4939892;28;20058;-76
2023/01/12 06:23:05;;;;;;;2.47;0.75;;;;;;;;;;5018390;27;21458;-78
2023/01/12 06:30:54;;;;;;;2.97;0.90;;;;;;;;;;5013447;27;20461;-71
2023/01/12 06:33:21;;;;;;;2.30;0.70;;;;;;;;;;4918999;28;20066;-75
2023/01/12 06:35:50;;;;;;;4.15;0.73;;;;;;;;;;4947388;28;20123;-74
2023/01/12 06:38:18;;;;;;;1.70;0.65;;;;;;;;;;4933902;28;20061;-72
2023/01/12 06:40:44;;;;;;;2.33;0.80;;;;;;;;;;4940075;28;20063;-73
2023/01/12 06:43:11;;;;;;;6.88;0.90;;;;;;;;;;4962369;28;20049;-72
2023/01/12 06:45:40;;;;;;;6.60;1.25;;;;;;;;;;4936754;28;20073;-74
2023/01/12 06:53:16;;;;;;;3.08;1.10;;;;;;;;;;4970841;27;20451;-79
2023/01/12 07:11:24;;;;;;;2.90;0.80;;;;;;;;;;6056079;22;4228825;-77
2023/01/12 07:13:56;;;;;;;4.25;0.80;;;;;;;;;;6067405;23;20037;-78
2023/01/12 07:18:57;;;;;;;2.22;0.65;;;;;;;;;;6002443;23;20053;-73
2023/01/12 07:24:04;;;;;;;1.95;0.80;;;;;;;;;;6084806;23;20079;-75
2023/01/12 07:26:33;;;;;;;2.22;0.70;;;;;;;;;;6048829;23;20029;-73
2023/01/12 08:25:43;;;;;;;1.92;0.88;;;;;;;;;;4947102;27;20526;-77
2023/01/12 08:31:08;;;;;;;1.65;0.80;;;;;;;;;;5049357;27;20424;-75
2023/01/12 08:36:03;;;;;;;2.77;0.90;;;;;;;;;;4877566;28;20043;-75
2023/01/12 08:46:24;;;;;;;;;;;;;;;;;;5032484;28;20080;-77
2023/01/12 08:48:55;;;;;;;;;;;;;;;;;;4994879;28;19960;-73
2023/01/12 08:51:27;;;;;;;2.05;0.85;;;;;;;;;;5021137;28;19924;-73
2023/01/12 08:53:54;;;;;;;1.00;0.80;;;;;;;;;;4990868;28;20056;-74
2023/01/12 08:56:35;;;;;;;1.08;0.75;;;;;;;;;;4971548;28;20053;-74
2023/01/12 09:03:54;;;;;;;2.05;0.90;;;;;;;;;;5028441;27;20514;-75
2023/01/12 09:06:24;;;;;;;1.77;0.80;;;;;;;;;;4953591;28;20046;-76
2023/01/12 09:08:58;;;;;;;1.05;0.70;;;;;;;;;;4932561;28;20058;-72
2023/01/12 09:13:54;;;;;;;2.65;0.98;;;;;;;;;;4862868;28;20034;-71
2023/01/12 09:16:32;;;;;;;7.03;1.02;;;;;;;;;;4880082;29;20056;-71
2023/01/12 09:21:40;;;;;;;3.08;0.77;;;;;;;;;;4706025;27;10476617;-73
2023/01/12 09:24:08;;;;;;;1.15;0.77;;;;;;;;;;5017454;28;20058;-73
2023/01/12 09:26:37;;;;;;;0.98;0.63;;;;;;;;;;4978720;28;20125;-75
2023/01/12 09:29:06;;;;;;;3.58;1.10;;;;;;;;;;4980726;28;20057;-74
2023/01/12 09:31:33;;;;;;;1.20;0.90;;;;;;;;;;4952324;28;20136;-76
2023/01/12 09:34:05;;;;;;;2.80;1.00;;;;;;;;;;4965091;28;20049;-73
2023/01/12 09:36:32;;;;;;;1.60;0.80;;;;;;;;;;4980744;28;20052;-73
2023/01/12 09:39:01;;;;;;;2.28;0.70;;;;;;;;;;4940241;28;20081;-72
2023/01/12 09:47:24;;;;;;;1.63;0.75;;;;;;;;;;4858055;29;20075;-74
2023/01/12 09:49:54;;;;;;;1.73;0.85;;;;;;;;;;4877340;28;20144;-73
2023/01/12 09:52:26;;;;;;;1.25;0.82;;;;;;;;;;4940705;28;20088;-75
2023/01/12 09:57:40;;;;;;;1.90;0.70;;;;;;;;;;4881405;28;20059;-71
2023/01/12 10:00:11;;;;;;;3.53;1.00;;;;;;;;;;4876903;28;20058;-76
2023/01/12 10:02:43;;;;;;;3.10;0.85;;;;;;;;;;4917697;28;20056;-78
2023/01/12 10:08:01;;;;;;;0.82;0.68;;;;;;;;;;4932852;28;20062;-71
2023/01/12 10:10:28;;;;;;;1.33;0.70;;;;;;;;;;4958740;28;20061;-74
2023/01/12 10:13:00;;;;;;;0.77;0.68;;;;;;;;;;4942714;28;20391;-74
2023/01/12 10:15:41;;;;;;;2.85;0.82;;;;;;;;;;4917406;28;20055;-81
2023/01/12 10:18:14;;;;;;;0.80;0.50;;;;;;;;;;4923881;28;20094;-74
2023/01/12 10:20:46;;;;;;;1.10;0.70;;;;;;;;;;4936821;28;20188;-76
2023/01/12 10:23:19;;;;;;;3.95;0.90;;;;;;;;;;4934673;28;20054;-75
2023/01/12 10:25:54;;;;;;;1.30;0.52;;;;;;;;;;4966001;28;20062;-72
2023/01/12 10:28:32;;;;;;;0.70;0.50;;;;;;;;;;4970111;28;20056;-77
2023/01/12 10:31:01;;;;;;;1.83;0.60;;;;;;;;;;4984988;28;20045;-75
2023/01/12 10:33:31;;;;;;;1.25;0.50;;;;;;;;;;4942349;28;20057;-74
2023/01/12 10:36:01;;;;;;;3.58;0.57;;;;;;;;;;5010227;28;20057;-79
2023/01/12 10:38:34;;;;;;;2.22;0.40;;;;;;;;;;4998374;28;20056;-76
2023/01/12 10:51:21;;;;;;;1.67;0.55;;;;;;;;;;5047695;27;20443;-76
2023/01/12 10:53:51;;;;;;;1.20;0.43;;;;;;;;;;4958750;28;20073;-72
2023/01/12 11:01:41;;;;;;;0.60;0.40;;;;;;;;;;4990267;27;20431;-74
2023/01/12 11:09:25;;;;;;;3.78;0.55;;;;;;;;;;4971844;27;1977525;-76
2023/01/12 11:12:00;;;;;;;0.40;0.40;;;;;;;;;;4987960;28;20049;-76
2023/01/12 11:14:31;;;;;;;1.55;0.40;;;;;;;;;;4957690;28;20050;-74
2023/01/12 11:22:09;;;;;;;0.45;0.40;;;;;;;;;;5030290;27;20459;-75
2023/01/12 11:34:53;;;;;;;1.23;0.50;;;;;;;;;;4995336;27;20436;-75
2023/01/12 11:55:56;;;;;;;2.75;0.80;;;;;;;;;;6139870;23;20028;-74
2023/01/12 12:03:45;;;;;;;2.15;0.68;;;;;;;;;;4994136;27;20478;-71
2023/01/12 12:09:25;;;;;;;0.95;0.60;;;;;;;;;;4834548;29;20049;-75
2023/01/12 12:12:02;;;;;;;0.55;0.40;;;;;;;;;;4832333;29;20052;-75
2023/01/12 12:28:12;;;;;;;0.98;0.52;;;;;;;;;;4841171;29;20056;-76
2023/01/12 12:33:20;;;;;;;1.45;0.60;;;;;;;;;;4830162;29;20048;-78
2023/01/12 12:35:57;;;;;;;1.73;0.70;;;;;;;;;;4900914;28;21215;-76
2023/01/12 12:38:35;;;;;;;1.08;0.60;;;;;;;;;;4894207;28;20070;-75
2023/01/12 12:49:20;;;;;;;0.93;0.60;;;;;;;;;;5001306;27;20479;-72
2023/01/12 12:51:49;;;;;;;1.17;0.60;;;;;;;;;;4950428;28;20059;-77
2023/01/12 12:54:20;;;;;;;0.77;0.38;;;;;;;;;;4950197;28;20137;-76
2023/01/12 13:02:31;;;;;;;1.30;0.50;;;;;;;;;;4992918;27;20461;-75
2023/01/12 13:05:00;;;;;;;0.82;0.55;;;;;;;;;;4946786;28;20053;-75
2023/01/12 13:07:37;;;;;;;1.50;0.63;;;;;;;;;;4951624;28;20038;-72
2023/01/12 13:12:56;;;;;;;0.93;0.53;;;;;;;;;;4542549;29;10005971;-74
2023/01/12 13:15:31;;;;;;;1.95;0.88;;;;;;;;;;4911914;28;20218;-75
2023/01/12 13:17:59;;;;;;;1.20;0.80;;;;;;;;;;4901750;28;20066;-77
2023/01/12 13:54:49;;;;;;;1.67;0.93;;;;;;;;;;6081982;22;2184013;-78
2023/01/12 13:57:23;;;;;;;1.50;0.93;;;;;;;;;;6000541;23;20033;-74
2023/01/12 13:59:56;;;;;;;1.45;0.80;;;;;;;;;;5992731;23;20035;-74
2023/01/12 14:02:28;;;;;;;1.20;0.90;;;;;;;;;;5965361;23;20030;-72
2023/01/12 14:05:12;;;;;;;1.13;0.88;;;;;;;;;;6006456;23;20098;-71
2023/01/12 14:07:54;;;;;;;2.20;0.88;;;;;;;;;;5974381;23;20035;-74
2023/01/12 14:10:32;;;;;;;1.35;0.88;;;;;;;;;;6023525;23;20026;-73
2023/01/12 14:13:21;;;;;;;2.00;0.90;;;;;;;;;;5965278;23;20116;-76
2023/01/12 16:11:55;;;;;;;0.90;0.50;;;;;;;;;;4987958;27;20423;-75
